Austin, TX (78703)

1:35 AM CDT on October 31, 2014 (GMT -0500)
West Austin | Change Station
CLOSE
Current Station
Personal Weather Station
Location: Austin, TX
Elevation: 617 ft
Nearby Weather Stations

Elev 617 ft 30.29 °N, 97.75 °W | Updated 10 minutes ago

Partly Cloudy
Partly Cloudy
66.6 °F
Feels Like 66.6 °F
N
0.0
Wind Variable Wind from West

Today
High -- | Low -- °F
--% Chance of Precip.
Yesterday
High -- | Low -- °F
Precip. -- in
7:44 AM 6:44 PM
First Quarter, 52% visible
Pressure 30.11 in
Visibility 10.0 miles
Clouds Few 5500 ft
Dew Point 57 °F
Humidity 72%
Rainfall 0.00 in
Snow Depth Not available.
UV 0 out of 12
Pollen 5.10 out of 12
Air Quality Not available.
Flu Activity Not available.
METAR KATT 310551Z AUTO 02003KT 10SM FEW055 19/16 A3013 RMK AO2 RAE04 SLP194 P0000 60000 T01940156 10250 20194 402780172 51008

More Conditions Fewer Conditions

Pressure 30.11 in
Visibility 10.0 miles
Clouds Few 5500 ft
Dew Point 57 °F
Humidity 72%
Rainfall 0.00 in
Snow Depth Not available.
UV 0 out of 12
Pollen 5.10 out of 12
Air Quality Not available.
Flu Activity Not available.
METAR KATT 310551Z AUTO 02003KT 10SM FEW055 19/16 A3013 RMK AO2 RAE04 SLP194 P0000 60000 T01940156 10250 20194 402780172 51008

More Conditions Fewer Conditions

Nowcast | as of 12:42 am CDT on October 31, 2014

Through 3 am...showers and thunderstorms along a Flatonia to San Marcos to Johnson City to Mason to Junction to Sonora line and along a Caldwell to Lampasas to San Saba line will move south at 15 mph. Rainfall amounts up to one inch can be expected. Wind gusts up to 30 mph are possible with the stronger storms. Elsewhere...isolated showers can be expected with rainfall amounts less than one tenth inch.

×

10-Day Weather Forecast

Almanac

Astronomy

Oct. 31, 2014 Rise Set
Actual Time
Civil Twilight
Nautical Twilight
Astronomical Twilight
Moon
Length of Visible Light
Length of Day
Tomorrow will be .
, % of the Moon is Illuminated

Today's Extremes

State Highs State Lows

Community

WunderPhotos

Upload Photos

1,766,571 photos uploaded!

WunderBlogs® & News

Nearby

Air Quality

  Air Quality AQ Index Pollutant
Not available.

Snow Depth

Station Depth Elevation

Earthquake Activity

City Distance Mag. Time & Date
Minimum magnitude displayed is 2.5.

Coastal Water Temperatures

Place Temperature

Nearby Weather Stations